Time;durP1;ratioP1;P1;durP2;ratioP2;P2;SDS_P1;SDS_P2;PMS_P1;PMS_P2;Temp;Humidity;BMP_temperature;BMP_pressure;BME280_temperature;BME280_humidity;BME280_pressure;Samples;Min_cycle;Max_cycle;Signal;HPM_P1;HPM_P2
2021/08/13 00:02:07;;;;;;;8.55;7.65;;;17.20;99.90;;;;;;5008976;28;20141;-68
2021/08/13 00:04:33;;;;;;;8.60;7.80;;;17.20;99.90;;;;;;5001166;28;20047;-68
2021/08/13 00:06:59;;;;;;;7.88;7.22;;;17.20;99.90;;;;;;5012460;28;20034;-68
2021/08/13 00:09:25;;;;;;;8.07;7.38;;;17.20;99.90;;;;;;5017083;28;20467;-68
2021/08/13 00:11:51;;;;;;;8.27;7.57;;;17.10;99.90;;;;;;5008560;28;20038;-68
2021/08/13 00:14:16;;;;;;;8.95;8.10;;;17.10;99.90;;;;;;5038810;28;20140;-68
2021/08/13 00:16:42;;;;;;;8.68;7.78;;;17.10;99.90;;;;;;5000320;28;20538;-68
2021/08/13 00:19:08;;;;;;;8.95;8.18;;;17.10;99.90;;;;;;5072455;28;20046;-68
2021/08/13 00:21:34;;;;;;;9.07;8.27;;;17.00;99.90;;;;;;5012263;28;20566;-68
2021/08/13 00:23:59;;;;;;;10.15;8.35;;;17.00;99.90;;;;;;5034071;28;20478;-68
2021/08/13 00:26:27;;;;;;;8.88;8.10;;;16.90;99.90;;;;;;5008503;28;20096;-68
2021/08/13 00:28:54;;;;;;;10.73;9.73;;;16.90;99.90;;;;;;5021067;28;20553;-68
2021/08/13 00:31:20;;;;;;;9.88;9.07;;;17.00;99.90;;;;;;5006134;28;20083;-68
2021/08/13 00:33:46;;;;;;;10.38;8.60;;;16.90;99.90;;;;;;5017825;28;20037;-68
2021/08/13 00:36:11;;;;;;;8.80;8.00;;;16.90;99.90;;;;;;5008995;28;20481;-68
2021/08/13 00:38:37;;;;;;;8.02;7.10;;;16.90;99.90;;;;;;5006315;28;20069;-68
2021/08/13 00:41:03;;;;;;;7.43;6.82;;;16.80;99.90;;;;;;5015286;28;20111;-68
2021/08/13 00:43:29;;;;;;;8.23;7.43;;;16.80;99.90;;;;;;5020072;28;20038;-68
2021/08/13 00:45:55;;;;;;;7.47;6.78;;;16.70;99.90;;;;;;5021321;28;20048;-68
2021/08/13 00:48:21;;;;;;;7.85;7.25;;;16.70;99.90;;;;;;5002949;28;20113;-68
2021/08/13 00:50:47;;;;;;;8.82;7.68;;;16.70;99.90;;;;;;5002724;28;20042;-68
2021/08/13 00:53:13;;;;;;;8.57;7.78;;;16.70;99.90;;;;;;5004213;28;20801;-68
2021/08/13 00:55:39;;;;;;;9.43;8.50;;;16.60;99.90;;;;;;5020029;27;20063;-67
2021/08/13 00:58:06;;;;;;;10.32;9.23;;;16.60;99.90;;;;;;5005635;28;20388;-67
2021/08/13 01:00:33;;;;;;;9.82;8.90;;;16.60;99.90;;;;;;5009511;28;20038;-67
2021/08/13 01:02:59;;;;;;;9.27;8.38;;;16.60;99.90;;;;;;5005847;28;20042;-67
2021/08/13 01:05:25;;;;;;;8.80;7.90;;;16.60;99.90;;;;;;5006488;28;20050;-67
2021/08/13 01:07:50;;;;;;;8.77;8.07;;;16.50;99.90;;;;;;4999543;28;20088;-67
2021/08/13 01:10:16;;;;;;;9.10;8.18;;;16.50;99.90;;;;;;5009171;28;20109;-67
2021/08/13 01:12:58;;;;;;;8.85;8.00;;;16.50;99.90;;;;;;5005380;28;20046;-67
2021/08/13 01:15:26;;;;;;;8.50;7.68;;;16.40;99.90;;;;;;5010076;28;20034;-67
2021/08/13 01:18:10;;;;;;;8.70;7.90;;;16.40;99.90;;;;;;5009010;28;20034;-67
2021/08/13 01:21:13;;;;;;;8.18;7.43;;;16.40;99.90;;;;;;5005865;28;20057;-67
2021/08/13 01:23:45;;;;;;;7.70;7.00;;;16.40;99.90;;;;;;5003085;28;20105;-67
2021/08/13 01:26:12;;;;;;;9.40;8.60;;;16.30;99.90;;;;;;5008935;28;20685;-67
2021/08/13 01:28:51;;;;;;;9.65;8.75;;;16.30;99.90;;;;;;5007654;28;20026;-67
2021/08/13 01:31:20;;;;;;;9.55;8.65;;;16.30;99.90;;;;;;5054346;28;20044;-67
2021/08/13 01:33:48;;;;;;;10.73;9.70;;;16.30;99.90;;;;;;5011080;28;20513;-67
2021/08/13 01:36:15;;;;;;;9.30;8.40;;;16.20;99.90;;;;;;5077709;28;20093;-67
2021/08/13 01:38:41;;;;;;;8.77;7.88;;;16.20;99.90;;;;;;5015028;28;20030;-68
2021/08/13 01:41:10;;;;;;;10.00;9.00;;;16.20;99.90;;;;;;5008069;28;20041;-67
2021/08/13 01:43:41;;;;;;;10.32;9.32;;;16.20;99.90;;;;;;5015750;28;20081;-67
2021/08/13 01:46:08;;;;;;;10.40;9.00;;;16.20;99.90;;;;;;5012019;28;20475;-67
2021/08/13 01:48:35;;;;;;;9.18;8.35;;;16.10;99.90;;;;;;5009363;28;20071;-67
2021/08/13 01:51:01;;;;;;;9.55;8.57;;;16.10;99.90;;;;;;5003645;28;20046;-67
2021/08/13 01:53:29;;;;;;;8.70;7.90;;;16.10;99.90;;;;;;5010206;28;20494;-67
2021/08/13 01:55:56;;;;;;;9.43;8.63;;;16.10;99.90;;;;;;5009206;28;20038;-67
2021/08/13 01:58:23;;;;;;;10.07;8.93;;;16.00;99.90;;;;;;5010159;28;20038;-67
2021/08/13 02:00:53;;;;;;;9.48;8.52;;;16.10;99.90;;;;;;5011452;28;20049;-68
2021/08/13 02:03:19;;;;;;;9.88;8.73;;;16.00;99.90;;;;;;5009601;28;20061;-68
2021/08/13 02:05:48;;;;;;;10.23;9.07;;;16.00;99.90;;;;;;5008333;28;20042;-68
2021/08/13 02:08:14;;;;;;;11.70;9.18;;;16.00;99.90;;;;;;5007122;28;20149;-67
2021/08/13 02:10:43;;;;;;;9.35;8.45;;;15.90;99.90;;;;;;5007646;28;20043;-68
2021/08/13 02:13:10;;;;;;;9.57;8.68;;;15.90;99.90;;;;;;5007790;28;20523;-67
2021/08/13 02:15:37;;;;;;;7.88;7.18;;;15.90;99.90;;;;;;5002230;28;20065;-67
2021/08/13 02:18:16;;;;;;;7.10;6.50;;;15.90;99.90;;;;;;5001661;28;20496;-67
2021/08/13 02:20:44;;;;;;;7.18;6.40;;;15.90;99.90;;;;;;5033049;28;20043;-67
2021/08/13 02:23:10;;;;;;;7.38;6.68;;;15.80;99.90;;;;;;5016004;28;20057;-67
2021/08/13 02:25:37;;;;;;;7.25;6.55;;;15.80;99.90;;;;;;5010158;28;20041;-67
2021/08/13 02:28:03;;;;;;;6.80;6.20;;;15.80;99.90;;;;;;5005282;28;20030;-67
2021/08/13 02:30:30;;;;;;;6.68;6.15;;;15.80;99.90;;;;;;5004733;28;20042;-67
2021/08/13 02:32:56;;;;;;;7.30;6.70;;;15.80;99.90;;;;;;5008497;28;20042;-67
2021/08/13 02:35:22;;;;;;;8.27;7.57;;;15.70;99.90;;;;;;4996432;28;20048;-67
2021/08/13 02:38:27;;;;;;;8.50;7.70;;;15.70;99.90;;;;;;5008205;28;20550;-67
2021/08/13 02:40:57;;;;;;;8.70;8.00;;;15.70;99.90;;;;;;5001560;28;20054;-67
2021/08/13 02:43:31;;;;;;;8.07;7.38;;;15.70;99.90;;;;;;4995000;28;20049;-68
2021/08/13 02:46:01;;;;;;;8.85;8.05;;;15.70;99.90;;;;;;5000520;28;20083;-67
2021/08/13 02:48:28;;;;;;;8.15;7.43;;;15.70;99.90;;;;;;5005389;28;20041;-67
2021/08/13 02:50:56;;;;;;;6.30;5.75;;;15.70;99.90;;;;;;5003336;28;20044;-67
2021/08/13 02:53:24;;;;;;;6.35;5.55;;;15.60;99.90;;;;;;5006465;28;20033;-67
2021/08/13 02:56:04;;;;;;;6.30;5.70;;;15.60;99.90;;;;;;5007996;28;20041;-67
2021/08/13 02:58:39;;;;;;;6.72;5.97;;;15.60;99.90;;;;;;5007109;28;20041;-67
2021/08/13 03:01:07;;;;;;;6.88;6.28;;;15.60;99.90;;;;;;5035165;28;20052;-67
2021/08/13 03:03:34;;;;;;;6.95;5.72;;;15.60;99.90;;;;;;5039067;28;20823;-67
2021/08/13 03:06:03;;;;;;;8.52;7.57;;;15.50;99.90;;;;;;5006226;28;20046;-67
2021/08/13 03:08:29;;;;;;;8.65;7.85;;;15.50;99.90;;;;;;5011486;28;20067;-67
2021/08/13 03:10:57;;;;;;;9.13;8.25;;;15.50;99.90;;;;;;5012315;28;20125;-68
2021/08/13 03:13:24;;;;;;;8.85;8.05;;;15.50;99.90;;;;;;5012989;28;20390;-68
2021/08/13 03:15:52;;;;;;;8.38;7.68;;;15.50;99.90;;;;;;5007008;28;20038;-68
2021/08/13 03:18:18;;;;;;;7.90;7.20;;;15.50;99.90;;;;;;5014522;28;20038;-68
2021/08/13 03:20:44;;;;;;;10.55;7.30;;;15.40;99.90;;;;;;4995035;28;20049;-67
2021/08/13 03:23:10;;;;;;;8.02;7.32;;;15.40;99.90;;;;;;5007326;28;20038;-67
2021/08/13 03:25:36;;;;;;;8.35;7.65;;;15.40;99.90;;;;;;5010950;28;20090;-67
2021/08/13 03:28:05;;;;;;;8.85;7.95;;;15.40;99.90;;;;;;5044691;28;20030;-68
2021/08/13 03:30:40;;;;;;;8.50;7.70;;;15.30;99.90;;;;;;5000021;28;20778;-68
2021/08/13 03:33:09;;;;;;;8.15;7.35;;;15.30;99.90;;;;;;4997046;28;20045;-68
2021/08/13 03:35:35;;;;;;;8.13;7.32;;;15.30;99.90;;;;;;5000307;28;20041;-68
2021/08/13 03:38:01;;;;;;;8.73;7.93;;;15.30;99.90;;;;;;5010657;28;20498;-67
2021/08/13 03:40:26;;;;;;;8.35;7.63;;;15.20;99.90;;;;;;5015978;28;20131;-67
2021/08/13 03:42:52;;;;;;;8.80;8.00;;;15.20;99.90;;;;;;4999440;28;20438;-67
2021/08/13 03:45:17;;;;;;;9.57;7.60;;;15.10;99.90;;;;;;5009455;28;20475;-67
2021/08/13 03:47:43;;;;;;;8.82;7.80;;;15.10;99.90;;;;;;5009135;28;20046;-67
2021/08/13 03:50:09;;;;;;;8.18;7.43;;;15.10;99.90;;;;;;5012101;28;20477;-67
2021/08/13 03:52:35;;;;;;;9.05;7.43;;;15.10;99.90;;;;;;5000851;28;20100;-67
2021/08/13 03:55:00;;;;;;;11.00;8.30;;;15.00;99.90;;;;;;5008956;28;20578;-68
2021/08/13 03:57:26;;;;;;;8.57;7.78;;;15.10;99.90;;;;;;5007433;28;20095;-68
2021/08/13 03:59:51;;;;;;;9.40;8.57;;;15.00;99.90;;;;;;5007951;28;20380;-67
2021/08/13 04:02:18;;;;;;;9.63;8.77;;;15.00;99.90;;;;;;5015635;28;20054;-67
2021/08/13 04:04:43;;;;;;;9.98;8.95;;;15.00;99.90;;;;;;5010418;28;20044;-67
2021/08/13 04:07:09;;;;;;;10.52;9.40;;;15.00;99.90;;;;;;5009420;28;20120;-67
2021/08/13 04:09:37;;;;;;;11.43;10.25;;;15.00;99.90;;;;;;5010331;28;20038;-67
2021/08/13 04:12:03;;;;;;;9.20;8.30;;;15.00;99.90;;;;;;5008310;28;20038;-67
2021/08/13 04:14:31;;;;;;;11.00;10.00;;;15.00;99.90;;;;;;5005108;28;20030;-67
2021/08/13 04:16:57;;;;;;;11.65;10.50;;;15.00;99.90;;;;;;5038846;23;20057;-67
2021/08/13 04:19:22;;;;;;;12.40;10.23;;;15.00;99.90;;;;;;5008902;28;20050;-67
2021/08/13 04:21:49;;;;;;;12.07;10.88;;;15.00;99.90;;;;;;5008320;28;20044;-67
2021/08/13 04:24:14;;;;;;;11.98;10.77;;;15.00;99.90;;;;;;5007709;28;20053;-67
2021/08/13 04:26:40;;;;;;;11.82;10.63;;;15.00;99.90;;;;;;5047631;28;20467;-67
2021/08/13 04:29:06;;;;;;;11.70;10.63;;;15.00;99.90;;;;;;5005264;28;20038;-67
2021/08/13 04:31:39;;;;;;;13.02;11.65;;;15.00;99.90;;;;;;5007552;28;20808;-67
2021/08/13 04:34:05;;;;;;;12.40;11.25;;;15.00;99.90;;;;;;5008144;28;20040;-67
2021/08/13 04:36:31;;;;;;;14.50;11.65;;;15.00;99.90;;;;;;5009345;28;20045;-67
2021/08/13 04:38:57;;;;;;;13.32;11.98;;;15.00;99.90;;;;;;5008569;28;20041;-67
2021/08/13 04:41:23;;;;;;;13.40;11.70;;;15.10;99.90;;;;;;5009000;28;20490;-67
2021/08/13 04:43:49;;;;;;;12.90;11.60;;;15.10;99.90;;;;;;5008294;28;20056;-67
2021/08/13 04:46:15;;;;;;;13.10;11.73;;;15.10;99.90;;;;;;5005468;28;20062;-67
2021/08/13 04:48:41;;;;;;;13.95;12.45;;;15.20;99.90;;;;;;5018995;28;20065;-67
2021/08/13 04:51:09;;;;;;;13.40;11.90;;;15.20;99.90;;;;;;5007545;28;20049;-67
2021/08/13 04:53:35;;;;;;;13.15;11.85;;;15.30;99.90;;;;;;5009795;28;20037;-67
2021/08/13 04:56:00;;;;;;;13.38;11.98;;;15.30;99.90;;;;;;5007122;28;20056;-67
2021/08/13 04:58:33;;;;;;;13.13;11.85;;;15.40;99.90;;;;;;5008468;28;20049;-67
2021/08/13 05:00:58;;;;;;;13.35;12.05;;;15.50;99.90;;;;;;5009056;28;20034;-67
2021/08/13 05:03:26;;;;;;;13.77;12.38;;;15.60;99.90;;;;;;5006878;28;20050;-67
2021/08/13 05:05:52;;;;;;;14.05;12.57;;;15.60;99.90;;;;;;5007385;28;20048;-67
2021/08/13 05:08:20;;;;;;;14.65;12.75;;;15.70;99.90;;;;;;5005897;28;20443;-67
2021/08/13 05:10:46;;;;;;;15.45;13.82;;;15.80;99.90;;;;;;5006749;28;20137;-68
2021/08/13 05:13:11;;;;;;;16.25;14.60;;;15.90;99.90;;;;;;5007377;28;20413;-67
2021/08/13 05:15:44;;;;;;;15.60;14.00;;;15.90;99.90;;;;;;5012199;28;20041;-67
2021/08/13 05:18:13;;;;;;;16.13;13.35;;;16.00;99.90;;;;;;5008594;28;20046;-67
2021/08/13 05:20:38;;;;;;;14.75;13.32;;;16.20;99.90;;;;;;5008376;28;20056;-67
2021/08/13 05:23:05;;;;;;;15.38;13.88;;;16.30;99.90;;;;;;5008532;28;20399;-67
2021/08/13 05:25:30;;;;;;;16.35;14.63;;;16.50;99.90;;;;;;5009234;28;20074;-67
2021/08/13 05:27:56;;;;;;;15.15;13.55;;;16.70;99.90;;;;;;5008137;28;20091;-67
2021/08/13 05:30:35;;;;;;;15.63;14.07;;;16.70;99.90;;;;;;5005776;28;20049;-67
2021/08/13 05:33:01;;;;;;;14.77;13.30;;;16.90;99.90;;;;;;5007508;28;20037;-67
2021/08/13 05:35:36;;;;;;;16.27;14.15;;;17.00;99.90;;;;;;5007795;28;20379;-67
2021/08/13 05:38:02;;;;;;;15.18;13.65;;;17.10;99.90;;;;;;5007030;28;20038;-67
2021/08/13 05:40:30;;;;;;;16.35;14.77;;;17.20;99.90;;;;;;5016388;28;20036;-67
2021/08/13 05:42:56;;;;;;;16.33;14.73;;;17.30;99.90;;;;;;5036904;28;20540;-71
2021/08/13 05:45:23;;;;;;;16.27;14.68;;;17.40;99.90;;;;;;5027543;28;20090;-71
2021/08/13 05:47:48;;;;;;;17.35;15.68;;;17.60;99.90;;;;;;5050045;28;20039;-71
2021/08/13 05:50:16;;;;;;;17.73;15.95;;;17.70;99.90;;;;;;5012160;28;20382;-71
2021/08/13 05:52:45;;;;;;;16.75;14.95;;;17.90;99.90;;;;;;5006997;28;20042;-71
2021/08/13 05:55:12;;;;;;;17.90;16.13;;;17.90;99.90;;;;;;5005941;28;20073;-71
2021/08/13 05:57:38;;;;;;;16.55;14.85;;;18.40;99.90;;;;;;5008991;28;20499;-71
2021/08/13 06:00:05;;;;;;;16.23;14.52;;;18.90;99.90;;;;;;5008006;28;20124;-71
2021/08/13 06:02:31;;;;;;;17.80;14.90;;;19.80;99.90;;;;;;5007062;28;20045;-71
2021/08/13 06:04:57;;;;;;;16.48;14.98;;;20.90;99.90;;;;;;5007439;28;20110;-71
2021/08/13 06:07:24;;;;;;;15.98;14.00;;;22.00;99.90;;;;;;5004738;28;20042;-71
2021/08/13 06:09:49;;;;;;;16.70;14.13;;;22.90;99.90;;;;;;5008406;28;20034;-69
2021/08/13 06:12:15;;;;;;;18.08;14.40;;;23.70;99.90;;;;;;5006131;28;20041;-69
2021/08/13 06:14:41;;;;;;;19.02;16.08;;;24.30;99.90;;;;;;5008567;28;20042;-71
2021/08/13 06:17:07;;;;;;;17.08;15.38;;;24.30;99.90;;;;;;5008120;28;20419;-71
2021/08/13 06:19:33;;;;;;;16.45;14.85;;;24.40;99.90;;;;;;5006875;28;20100;-71
2021/08/13 06:21:59;;;;;;;16.88;15.23;;;24.70;99.90;;;;;;5007502;28;20114;-71
2021/08/13 06:24:26;;;;;;;18.05;16.25;;;24.70;99.90;;;;;;5007854;28;20038;-71
2021/08/13 06:26:52;;;;;;;17.33;15.32;;;24.40;99.90;;;;;;5008733;28;20038;-71
2021/08/13 06:29:20;;;;;;;17.92;15.57;;;24.10;99.90;;;;;;5008620;28;20049;-71
2021/08/13 06:31:47;;;;;;;16.45;14.85;;;23.70;99.90;;;;;;5007375;28;20546;-71
2021/08/13 06:34:12;;;;;;;15.57;14.18;;;23.70;99.90;;;;;;5006609;28;20578;-71
2021/08/13 06:36:38;;;;;;;16.15;14.45;;;23.70;99.90;;;;;;5008122;28;20038;-72
2021/08/13 06:39:04;;;;;;;16.00;14.48;;;23.60;99.90;;;;;;5005472;28;20104;-71
2021/08/13 06:41:29;;;;;;;15.90;14.50;;;23.80;99.90;;;;;;5007837;28;20046;-71
2021/08/13 06:43:55;;;;;;;15.52;13.93;;;24.10;99.90;;;;;;5006010;28;20456;-71
2021/08/13 06:46:20;;;;;;;17.13;15.18;;;24.20;99.90;;;;;;5007287;28;20030;-71
2021/08/13 06:48:46;;;;;;;16.02;14.43;;;24.20;99.90;;;;;;5022481;28;20090;-71
2021/08/13 06:51:12;;;;;;;15.55;14.00;;;24.00;99.90;;;;;;4992124;28;20039;-71
2021/08/13 06:53:38;;;;;;;16.05;14.55;;;24.10;99.60;;;;;;5008617;28;20057;-71
2021/08/13 06:56:04;;;;;;;16.48;13.25;;;24.10;99.90;;;;;;5005139;28;20033;-71
2021/08/13 06:58:29;;;;;;;14.90;13.43;;;24.20;99.20;;;;;;5004342;28;20494;-71
2021/08/13 07:00:55;;;;;;;16.10;14.48;;;24.50;99.90;;;;;;5006805;28;20098;-71
2021/08/13 07:03:21;;;;;;;15.52;13.85;;;24.50;99.90;;;;;;5007317;28;20109;-72
2021/08/13 07:05:47;;;;;;;16.00;14.40;;;24.60;99.80;;;;;;5004406;28;20042;-72
2021/08/13 07:08:13;;;;;;;15.70;14.05;;;24.50;99.70;;;;;;5007889;28;20030;-72
2021/08/13 07:10:39;;;;;;;15.60;14.10;;;24.50;99.30;;;;;;5007525;28;20469;-71
2021/08/13 07:13:05;;;;;;;15.02;13.52;;;24.50;98.90;;;;;;5007487;28;20036;-72
2021/08/13 07:15:31;;;;;;;16.13;14.63;;;24.70;99.20;;;;;;5003580;28;20067;-71
2021/08/13 07:17:57;;;;;;;15.75;13.40;;;24.90;98.30;;;;;;5004401;28;20042;-72
2021/08/13 07:20:24;;;;;;;16.65;14.80;;;25.20;98.90;;;;;;5006389;28;20124;-72
2021/08/13 07:22:50;;;;;;;14.27;12.82;;;25.40;97.60;;;;;;5006571;28;20042;-72
2021/08/13 07:25:16;;;;;;;16.05;14.00;;;25.50;98.00;;;;;;5017583;28;20493;-71
2021/08/13 07:27:41;;;;;;;13.98;12.50;;;25.60;97.60;;;;;;5004796;28;20042;-72
2021/08/13 07:30:08;;;;;;;13.88;12.48;;;25.50;97.60;;;;;;5006287;28;20042;-72
2021/08/13 07:32:33;;;;;;;15.02;13.55;;;25.60;96.10;;;;;;5004229;28;20460;-72
2021/08/13 07:34:59;;;;;;;14.25;12.85;;;25.40;97.20;;;;;;5004749;28;20063;-72
2021/08/13 07:37:25;;;;;;;14.20;12.77;;;25.10;96.80;;;;;;5025273;28;20058;-71
2021/08/13 07:39:51;;;;;;;14.85;12.55;;;25.00;97.30;;;;;;5059292;28;20470;-71
2021/08/13 07:42:17;;;;;;;14.15;12.75;;;24.80;98.40;;;;;;5017035;28;20524;-71
2021/08/13 07:44:43;;;;;;;15.40;13.82;;;24.80;97.60;;;;;;5004809;28;20107;-71
2021/08/13 07:47:13;;;;;;;15.90;14.20;;;24.60;98.40;;;;;;5017933;28;20038;-71
2021/08/13 07:49:39;;;;;;;14.43;13.02;;;24.60;98.80;;;;;;5046967;28;20485;-71
2021/08/13 07:52:04;;;;;;;14.98;13.48;;;24.60;98.10;;;;;;5004241;28;20045;-71
2021/08/13 07:54:30;;;;;;;13.75;12.45;;;24.50;98.60;;;;;;4999516;28;20076;-71
2021/08/13 07:56:56;;;;;;;14.85;13.18;;;24.40;99.10;;;;;;5007743;28;20041;-71
2021/08/13 07:59:21;;;;;;;14.55;13.15;;;24.30;99.40;;;;;;5006017;28;20441;-71
2021/08/13 08:01:47;;;;;;;14.60;12.63;;;24.30;98.30;;;;;;5001420;28;20061;-71
2021/08/13 08:04:12;;;;;;;13.82;12.43;;;24.20;99.10;;;;;;5004604;28;20118;-71
2021/08/13 08:06:38;;;;;;;13.52;12.20;;;24.10;99.80;;;;;;5005303;28;20095;-71
2021/08/13 08:09:05;;;;;;;14.48;12.75;;;24.10;99.90;;;;;;5006959;28;20030;-71
2021/08/13 08:11:31;;;;;;;13.07;11.77;;;24.00;99.90;;;;;;5006967;28;20050;-71
2021/08/13 08:13:56;;;;;;;12.88;11.15;;;23.90;99.90;;;;;;5006457;28;20491;-71
2021/08/13 08:16:22;;;;;;;12.52;9.85;;;23.80;99.90;;;;;;5027194;28;20033;-70
2021/08/13 08:18:48;;;;;;;9.85;8.70;;;23.70;99.90;;;;;;5055190;28;20038;-71
2021/08/13 08:21:13;;;;;;;11.02;9.43;;;23.80;99.60;;;;;;5009590;28;20040;-71
2021/08/13 08:23:39;;;;;;;9.55;8.10;;;23.60;99.60;;;;;;5011355;28;20034;-71
2021/08/13 08:26:04;;;;;;;9.85;8.85;;;23.50;99.90;;;;;;5016432;28;20072;-71
2021/08/13 08:28:30;;;;;;;11.05;10.00;;;23.50;99.90;;;;;;5009781;28;20045;-71
2021/08/13 08:30:55;;;;;;;10.57;9.57;;;23.50;99.70;;;;;;5009771;28;20070;-71
2021/08/13 08:33:21;;;;;;;10.77;9.65;;;23.60;99.50;;;;;;5008250;28;20054;-71
2021/08/13 08:35:48;;;;;;;10.93;9.65;;;23.60;99.80;;;;;;5002884;28;20053;-70
2021/08/13 08:38:13;;;;;;;9.93;8.93;;;23.60;99.90;;;;;;5002862;28;20045;-71
2021/08/13 08:40:39;;;;;;;9.40;8.40;;;23.70;99.90;;;;;;4999265;28;20042;-70
2021/08/13 08:43:08;;;;;;;9.07;8.18;;;23.70;99.90;;;;;;5010562;28;20042;-71
2021/08/13 08:45:38;;;;;;;9.95;8.80;;;23.70;99.80;;;;;;5009758;28;20045;-70
2021/08/13 08:48:06;;;;;;;9.75;8.85;;;23.60;99.90;;;;;;5010677;28;20105;-65
2021/08/13 08:50:34;;;;;;;9.10;8.20;;;23.60;99.90;;;;;;5018858;28;20053;-65
2021/08/13 08:53:07;;;;;;;10.30;8.43;;;23.60;99.90;;;;;;5010485;28;20485;-64
2021/08/13 08:55:33;;;;;;;9.82;8.85;;;23.60;99.90;;;;;;5009310;28;20414;-65
2021/08/13 08:57:59;;;;;;;9.60;8.70;;;23.70;99.90;;;;;;5010505;28;20102;-65
2021/08/13 09:00:25;;;;;;;10.48;9.32;;;23.70;99.90;;;;;;5012113;28;20730;-66
2021/08/13 09:02:53;;;;;;;9.65;8.73;;;23.70;99.90;;;;;;5024297;28;20090;-65
2021/08/13 09:05:18;;;;;;;9.73;8.60;;;23.80;99.90;;;;;;5010131;28;20122;-65
2021/08/13 09:07:45;;;;;;;12.68;8.10;;;23.80;99.90;;;;;;5004741;28;20046;-65
2021/08/13 09:10:12;;;;;;;8.65;7.70;;;24.00;99.90;;;;;;5012285;28;20046;-65
2021/08/13 09:12:39;;;;;;;8.70;7.50;;;24.10;99.90;;;;;;5009832;28;20038;-65
2021/08/13 09:15:23;;;;;;;9.18;8.30;;;24.10;98.60;;;;;;5010089;28;20050;-65
2021/08/13 09:18:11;;;;;;;8.38;7.57;;;24.20;98.60;;;;;;5010074;28;20054;-65
2021/08/13 09:20:42;;;;;;;8.48;7.68;;;24.00;99.10;;;;;;4997008;28;20046;-64
2021/08/13 09:23:08;;;;;;;8.35;7.55;;;23.90;99.10;;;;;;5006225;28;20044;-65
2021/08/13 09:25:34;;;;;;;10.35;9.00;;;23.80;98.10;;;;;;5010775;28;20128;-64
2021/08/13 09:27:59;;;;;;;10.40;8.10;;;23.60;99.30;;;;;;5006975;28;20046;-65
2021/08/13 09:30:25;;;;;;;9.63;8.40;;;23.30;99.90;;;;;;5008664;28;20144;-65
2021/08/13 09:33:09;;;;;;;8.88;7.97;;;23.20;99.90;;;;;;5008678;28;20496;-65
2021/08/13 09:35:39;;;;;;;8.32;7.38;;;23.10;99.90;;;;;;5005659;28;20038;-64
2021/08/13 09:38:10;;;;;;;8.07;7.00;;;23.10;99.90;;;;;;5013656;28;20029;-65
2021/08/13 09:40:43;;;;;;;7.05;5.95;;;23.10;99.90;;;;;;5022333;28;20041;-65
2021/08/13 09:43:09;;;;;;;6.25;5.50;;;23.10;99.90;;;;;;5008839;28;20505;-65
2021/08/13 09:45:35;;;;;;;6.70;5.88;;;23.20;99.90;;;;;;5008928;28;20104;-66
2021/08/13 09:48:01;;;;;;;6.82;6.10;;;23.40;99.90;;;;;;5009031;28;20461;-66
2021/08/13 09:50:52;;;;;;;7.72;6.70;;;23.40;99.90;;;;;;5008187;28;20042;-66
2021/08/13 09:53:18;;;;;;;8.18;6.38;;;23.50;99.90;;;;;;5008927;28;20124;-66
2021/08/13 09:55:44;;;;;;;9.52;7.55;;;23.50;99.90;;;;;;5008269;28;20142;-65
2021/08/13 09:58:11;;;;;;;8.80;7.82;;;23.50;99.90;;;;;;5007952;28;20053;-65
2021/08/13 10:00:48;;;;;;;7.38;6.70;;;23.50;99.90;;;;;;5007725;28;20053;-65
2021/08/13 10:03:14;;;;;;;9.00;6.85;;;23.40;99.90;;;;;;5008058;28;20421;-65
2021/08/13 10:05:40;;;;;;;9.45;6.85;;;23.60;99.90;;;;;;5007551;28;20034;-65
2021/08/13 10:08:08;;;;;;;8.25;6.47;;;23.70;99.70;;;;;;5006487;28;20049;-65
2021/08/13 10:10:41;;;;;;;6.53;5.78;;;23.80;98.90;;;;;;5009552;28;20126;-65
2021/08/13 10:13:09;;;;;;;6.50;4.82;;;23.70;99.90;;;;;;5008418;28;22295;-65
2021/08/13 10:15:43;;;;;;;7.30;5.05;;;23.70;99.40;;;;;;5013458;28;20352;-65
2021/08/13 10:18:10;;;;;;;6.03;4.80;;;23.80;99.10;;;;;;5032899;28;20068;-65
2021/08/13 10:20:39;;;;;;;5.65;4.85;;;23.60;99.60;;;;;;5006138;28;20053;-65
2021/08/13 10:23:05;;;;;;;4.50;3.83;;;23.50;99.50;;;;;;5005282;28;20042;-65
2021/08/13 10:25:31;;;;;;;7.80;3.92;;;23.50;98.80;;;;;;5008704;28;20050;-65
2021/08/13 10:27:57;;;;;;;5.32;4.25;;;23.40;99.50;;;;;;5005989;28;20033;-65
2021/08/13 10:30:24;;;;;;;5.00;4.45;;;23.40;99.60;;;;;;5041046;28;20052;-65
2021/08/13 10:32:51;;;;;;;5.65;4.47;;;23.50;99.20;;;;;;5006724;28;20480;-65
2021/08/13 10:35:18;;;;;;;5.88;4.40;;;23.60;98.30;;;;;;5007741;28;20125;-65
2021/08/13 10:37:45;;;;;;;6.07;4.53;;;23.50;98.00;;;;;;5007811;28;20376;-65
2021/08/13 10:40:12;;;;;;;6.22;4.80;;;23.70;98.10;;;;;;5007884;28;20037;-65
2021/08/13 10:42:46;;;;;;;5.47;4.90;;;23.70;98.50;;;;;;5007634;28;20416;-65
2021/08/13 10:45:21;;;;;;;7.43;5.63;;;23.80;98.60;;;;;;5008832;28;20459;-64
2021/08/13 10:48:14;;;;;;;7.70;5.00;;;23.70;98.30;;;;;;5008097;28;20037;-65
2021/08/13 10:50:42;;;;;;;7.38;5.20;;;23.70;98.00;;;;;;5005570;28;20038;-65
2021/08/13 10:53:43;;;;;;;7.20;5.00;;;23.70;97.90;;;;;;5006809;28;20132;-65
2021/08/13 10:56:08;;;;;;;5.33;4.77;;;23.70;99.00;;;;;;5047596;28;20386;-65
2021/08/13 10:58:40;;;;;;;8.20;4.78;;;23.70;98.20;;;;;;5014495;28;20050;-65
2021/08/13 11:01:13;;;;;;;;;;;24.00;97.40;;;;;;5004655;28;20036;-64
2021/08/13 11:03:44;;;;;;;6.40;4.63;;;24.00;95.60;;;;;;5007931;28;20027;-64
2021/08/13 11:06:10;;;;;;;6.60;4.43;;;24.00;96.80;;;;;;4996959;28;20033;-65
2021/08/13 11:08:39;;;;;;;6.45;4.97;;;24.10;97.20;;;;;;5006607;28;20099;-65
2021/08/13 11:11:04;;;;;;;6.07;4.35;;;24.10;96.40;;;;;;5025202;28;20042;-65
2021/08/13 11:13:36;;;;;;;7.45;4.50;;;24.00;96.90;;;;;;5026120;28;20494;-65
2021/08/13 11:16:03;;;;;;;6.30;3.83;;;24.00;96.30;;;;;;5005642;28;20110;-65
2021/08/13 11:18:32;;;;;;;6.05;4.28;;;24.10;96.70;;;;;;5009532;28;20054;-65
2021/08/13 11:20:58;;;;;;;4.78;3.30;;;24.00;96.80;;;;;;5007268;28;20124;-65
2021/08/13 11:23:24;;;;;;;6.15;4.22;;;24.00;96.70;;;;;;5007559;28;20145;-65
2021/08/13 11:25:51;;;;;;;5.50;4.13;;;23.80;97.20;;;;;;5007687;28;20491;-65
2021/08/13 11:28:24;;;;;;;6.65;4.55;;;23.80;97.40;;;;;;5005625;28;20076;-65
2021/08/13 11:30:52;;;;;;;5.00;3.78;;;23.80;97.30;;;;;;5005308;28;20052;-64
2021/08/13 11:33:27;;;;;;;7.65;3.47;;;24.20;96.90;;;;;;5005771;28;20038;-64
2021/08/13 11:35:54;;;;;;;6.38;3.80;;;24.30;96.60;;;;;;5001830;28;20368;-65
2021/08/13 11:38:44;;;;;;;5.90;3.50;;;24.30;96.90;;;;;;5004345;28;20038;-64
2021/08/13 11:41:22;;;;;;;4.72;3.63;;;24.20;96.40;;;;;;5002907;28;20038;-64
2021/08/13 11:43:49;;;;;;;7.32;4.40;;;24.10;96.40;;;;;;4999125;28;20114;-65
2021/08/13 11:46:28;;;;;;;4.80;3.65;;;24.10;96.40;;;;;;5005396;28;20038;-65
2021/08/13 11:48:56;;;;;;;5.50;3.15;;;23.90;96.90;;;;;;5003975;28;20086;-65
2021/08/13 11:51:26;;;;;;;6.20;3.92;;;23.90;95.90;;;;;;5011255;28;20042;-65
2021/08/13 11:53:52;;;;;;;4.95;3.28;;;24.00;96.90;;;;;;5010874;28;20041;-65
2021/08/13 11:56:27;;;;;;;5.90;2.97;;;24.10;96.50;;;;;;5009661;28;20090;-65
2021/08/13 11:58:57;;;;;;;5.40;3.10;;;24.20;94.80;;;;;;5010412;28;20030;-64
2021/08/13 12:01:23;;;;;;;6.35;2.80;;;24.40;95.10;;;;;;5008869;28;20436;-65
2021/08/13 12:03:51;;;;;;;10.73;3.65;;;24.40;95.00;;;;;;5010046;28;20041;-66
2021/08/13 12:06:17;;;;;;;5.30;3.10;;;24.40;95.60;;;;;;5010677;28;20034;-66
2021/08/13 12:08:48;;;;;;;4.65;2.50;;;24.30;94.90;;;;;;5006061;28;20612;-66
2021/08/13 12:11:20;;;;;;;6.55;3.00;;;24.30;95.80;;;;;;5009774;28;20062;-66
2021/08/13 12:13:45;;;;;;;6.05;3.28;;;24.50;95.70;;;;;;5007224;28;20083;-66
2021/08/13 12:16:16;;;;;;;5.90;2.95;;;24.50;95.00;;;;;;5008248;28;20051;-66
2021/08/13 12:18:42;;;;;;;6.72;2.92;;;24.40;95.90;;;;;;5008692;28;20085;-66
2021/08/13 12:21:07;;;;;;;6.57;3.45;;;24.50;95.20;;;;;;5008770;28;20455;-66
2021/08/13 12:23:33;;;;;;;8.88;3.30;;;24.40;95.70;;;;;;5008458;28;20038;-65
2021/08/13 12:26:03;;;;;;;5.97;3.03;;;24.50;95.90;;;;;;5007783;28;20121;-65
2021/08/13 12:28:31;;;;;;;6.63;3.00;;;24.50;95.60;;;;;;5011582;28;20443;-64
2021/08/13 12:31:09;;;;;;;7.22;3.10;;;24.50;96.10;;;;;;5007716;28;20391;-66
2021/08/13 12:33:35;;;;;;;5.70;3.33;;;24.50;95.70;;;;;;5007760;28;20134;-67
2021/08/13 12:36:01;;;;;;;9.30;2.90;;;24.50;95.60;;;;;;5010046;28;20042;-66
2021/08/13 12:38:31;;;;;;;8.38;3.13;;;24.50;95.30;;;;;;5008725;28;20056;-64
2021/08/13 12:40:57;;;;;;;6.30;3.00;;;24.50;95.70;;;;;;5010775;28;20099;-66
2021/08/13 12:43:24;;;;;;;7.47;3.55;;;24.50;95.70;;;;;;5009907;28;20038;-66
2021/08/13 12:45:55;;;;;;;7.30;2.95;;;24.40;96.00;;;;;;5009708;28;20042;-66